createdAt,value
2024-03-06T00:00:55.007Z,7.65
2024-03-06T00:03:21.608Z,7.64
2024-03-06T00:05:48.855Z,7.64
2024-03-06T00:08:15.873Z,7.64
2024-03-06T00:10:42.869Z,7.64
2024-03-06T00:13:09.568Z,7.63
2024-03-06T00:15:36.224Z,7.63
2024-03-06T00:18:04.549Z,7.64
2024-03-06T00:20:31.131Z,7.63
2024-03-06T00:22:57.918Z,7.63
2024-03-06T00:25:24.506Z,7.63
2024-03-06T00:27:51.126Z,7.64
2024-03-06T00:30:17.883Z,7.56
2024-03-06T00:32:44.654Z,7.63
2024-03-06T00:35:13.354Z,7.62
2024-03-06T00:37:40.266Z,7.66
2024-03-06T00:40:07.768Z,7.66
2024-03-06T00:42:34.541Z,7.68
2024-03-06T00:45:01.237Z,7.70
2024-03-06T00:47:28.457Z,7.69
2024-03-06T00:49:55.135Z,7.72
2024-03-06T00:52:21.845Z,7.73
2024-03-06T00:54:48.496Z,7.75
2024-03-06T00:57:15.100Z,7.72
2024-03-06T00:59:41.678Z,7.78
2024-03-06T01:02:08.360Z,7.79
2024-03-06T01:04:35.093Z,7.75
2024-03-06T01:07:01.750Z,7.79
2024-03-06T01:09:28.409Z,7.82
2024-03-06T01:11:55.025Z,7.84
2024-03-06T01:14:23.554Z,7.80
2024-03-06T01:16:50.172Z,7.84
2024-03-06T01:19:16.753Z,7.83
2024-03-06T01:21:43.432Z,7.86
2024-03-06T01:24:10.026Z,7.86
2024-03-06T01:26:36.711Z,7.89
2024-03-06T01:29:03.635Z,7.85
2024-03-06T01:31:30.396Z,7.87
2024-03-06T01:33:57.001Z,7.92
2024-03-06T01:36:23.654Z,7.93
2024-03-06T01:38:50.228Z,7.93
2024-03-06T01:41:17.033Z,7.92
2024-03-06T01:43:43.975Z,7.95
2024-03-06T01:46:10.616Z,7.94
2024-03-06T01:48:37.286Z,7.95
2024-03-06T01:51:06.036Z,7.94
2024-03-06T01:53:34.728Z,7.96
2024-03-06T01:56:02.586Z,7.95
2024-03-06T01:58:29.492Z,7.98
2024-03-06T02:00:56.479Z,7.99
2024-03-06T02:03:23.765Z,8.00
2024-03-06T02:05:51.770Z,8.01
2024-03-06T02:08:18.866Z,7.98
2024-03-06T02:10:46.487Z,8.02
2024-03-06T02:13:14.859Z,7.98
2024-03-06T02:15:42.048Z,8.01
2024-03-06T02:18:10.198Z,8.04
2024-03-06T02:20:41.075Z,8.03
2024-03-06T02:23:08.867Z,8.04
2024-03-06T02:25:35.763Z,8.05
2024-03-06T02:28:02.461Z,8.06
2024-03-06T02:30:31.553Z,8.05
2024-03-06T02:32:58.388Z,8.05
2024-03-06T02:35:25.108Z,8.07
2024-03-06T02:37:51.728Z,8.07
2024-03-06T02:40:18.433Z,8.06
2024-03-06T02:42:45.065Z,7.94
2024-03-06T02:45:11.656Z,8.06
2024-03-06T02:47:38.447Z,8.06
2024-03-06T02:50:06.324Z,8.06
2024-03-06T02:52:33.161Z,8.06
2024-03-06T02:55:01.142Z,8.05
2024-03-06T02:57:29.493Z,8.03
2024-03-06T02:59:59.843Z,7.99
2024-03-06T03:02:27.149Z,8.01
2024-03-06T03:04:54.066Z,8.02
2024-03-06T03:07:20.812Z,8.02
2024-03-06T03:09:48.228Z,8.02
2024-03-06T03:12:15.004Z,8.02
2024-03-06T03:14:42.380Z,8.03
2024-03-06T03:17:09.154Z,8.04
2024-03-06T03:19:36.222Z,8.03
2024-03-06T03:22:05.405Z,8.05
2024-03-06T03:24:32.231Z,8.07
2024-03-06T03:26:58.845Z,8.07
2024-03-06T03:29:25.396Z,8.07
2024-03-06T03:31:52.106Z,8.07
2024-03-06T03:34:18.750Z,8.03
2024-03-06T03:36:45.404Z,8.03
2024-03-06T03:39:18.387Z,8.08
2024-03-06T03:41:49.462Z,8.07
2024-03-06T03:44:17.890Z,8.08
2024-03-06T03:46:44.805Z,8.10
2024-03-06T03:49:11.820Z,8.10
2024-03-06T03:51:39.760Z,8.07
2024-03-06T03:54:07.346Z,8.11
2024-03-06T03:56:34.582Z,8.11
2024-03-06T03:59:01.282Z,8.11
2024-03-06T04:01:28.074Z,8.12
2024-03-06T04:03:54.695Z,8.11
2024-03-06T04:06:21.361Z,8.13
2024-03-06T04:08:48.048Z,8.12
2024-03-06T04:11:14.735Z,8.13
2024-03-06T04:13:41.439Z,8.15
2024-03-06T04:16:08.158Z,8.14
2024-03-06T04:18:35.325Z,8.14
2024-03-06T04:21:08.436Z,8.13
2024-03-06T04:23:35.262Z,8.14
2024-03-06T04:26:02.337Z,8.14
2024-03-06T04:28:29.308Z,8.10
2024-03-06T04:30:56.531Z,8.15
2024-03-06T04:33:23.246Z,8.13
2024-03-06T04:35:49.897Z,8.15
2024-03-06T04:38:16.769Z,8.15
2024-03-06T04:40:43.627Z,8.16
2024-03-06T04:43:10.545Z,8.16
2024-03-06T04:45:37.194Z,8.16
2024-03-06T04:48:04.271Z,8.12
2024-03-06T04:50:30.882Z,8.13
2024-03-06T04:52:57.701Z,8.17
2024-03-06T04:55:26.157Z,8.18
2024-03-06T04:57:56.878Z,8.17
2024-03-06T05:00:24.365Z,8.15
2024-03-06T06:00:30.651Z,8.12
2024-03-06T06:02:57.427Z,8.12
2024-03-06T06:05:25.313Z,8.11
2024-03-06T06:07:52.384Z,8.12
2024-03-06T06:10:21.708Z,8.12
2024-03-06T06:12:49.944Z,8.12
2024-03-06T06:15:16.870Z,8.12
2024-03-06T06:17:47.305Z,8.13
2024-03-06T06:20:18.146Z,8.06
2024-03-06T06:22:45.518Z,8.15
2024-03-06T06:25:12.500Z,8.15
2024-03-06T06:27:40.075Z,8.10
2024-03-06T06:30:10.100Z,8.13
2024-03-06T06:32:37.769Z,8.14
2024-03-06T06:35:06.108Z,8.12
2024-03-06T06:37:33.024Z,8.12
2024-03-06T06:40:00.625Z,8.14
2024-03-06T06:42:27.266Z,8.15
2024-03-06T06:44:54.190Z,8.12
2024-03-06T06:47:20.852Z,8.15
2024-03-06T06:49:47.456Z,8.14
2024-03-06T06:52:15.880Z,8.13
2024-03-06T06:54:42.467Z,8.10
2024-03-06T06:57:09.968Z,8.17
2024-03-06T06:59:36.568Z,8.18
2024-03-06T07:02:03.952Z,8.21
2024-03-06T07:04:30.552Z,8.21
2024-03-06T07:06:57.152Z,8.21
2024-03-06T07:09:23.764Z,8.21
2024-03-06T07:11:50.711Z,8.22
2024-03-06T07:14:17.379Z,8.20
2024-03-06T07:16:45.189Z,8.23
2024-03-06T07:19:12.774Z,8.24
2024-03-06T07:21:39.634Z,8.25
2024-03-06T07:24:06.525Z,8.25
2024-03-06T07:26:34.538Z,8.27
2024-03-06T07:29:01.797Z,8.32
2024-03-06T07:31:28.542Z,8.33
2024-03-06T07:33:55.098Z,8.35
2024-03-06T07:36:22.044Z,8.37
2024-03-06T07:38:48.728Z,8.38
2024-03-06T07:41:15.384Z,8.40
2024-03-06T07:43:42.498Z,8.36
2024-03-06T07:46:11.701Z,8.38
2024-03-06T07:48:39.460Z,8.36
2024-03-06T07:51:06.460Z,8.37
2024-03-06T07:53:33.150Z,8.40
2024-03-06T07:55:59.936Z,8.40
2024-03-06T07:58:26.689Z,8.43
2024-03-06T08:00:57.548Z,8.43
2024-03-06T08:03:25.435Z,8.45
2024-03-06T08:05:56.299Z,8.47
2024-03-06T08:08:23.464Z,8.49
2024-03-06T08:10:50.402Z,8.50
2024-03-06T08:13:18.884Z,8.52
2024-03-06T08:15:46.267Z,8.53
2024-03-06T08:18:14.582Z,8.55
2024-03-06T08:20:42.743Z,8.55
2024-03-06T08:23:11.369Z,8.57
2024-03-06T08:25:38.918Z,8.58
2024-03-06T08:28:06.619Z,8.63
2024-03-06T08:30:33.899Z,8.66
2024-03-06T08:33:00.914Z,8.68
2024-03-06T08:35:27.964Z,8.70
2024-03-06T08:37:54.700Z,8.71
2024-03-06T08:40:21.842Z,8.72
2024-03-06T08:42:49.810Z,8.76
2024-03-06T08:45:17.848Z,8.78
2024-03-06T08:47:45.660Z,8.81
2024-03-06T08:50:13.633Z,8.83
2024-03-06T08:52:40.570Z,8.86
2024-03-06T08:55:08.081Z,8.89
2024-03-06T08:57:35.783Z,8.92
2024-03-06T09:00:03.428Z,8.89
2024-03-06T09:02:31.854Z,9.01
2024-03-06T09:04:58.462Z,9.03
2024-03-06T09:07:25.152Z,9.08
2024-03-06T09:09:54.879Z,9.12
2024-03-06T09:12:21.620Z,9.17
2024-03-06T09:14:48.313Z,9.17
2024-03-06T09:17:15.889Z,9.21
2024-03-06T09:19:54.983Z,9.19
2024-03-06T09:22:29.819Z,9.28
2024-03-06T09:24:57.596Z,9.31
2024-03-06T09:27:24.428Z,9.33
2024-03-06T09:29:51.080Z,9.38
2024-03-06T09:32:20.096Z,9.47
2024-03-06T09:34:47.031Z,9.49
2024-03-06T09:37:13.750Z,9.53
2024-03-06T09:39:40.390Z,9.51
2024-03-06T09:42:07.804Z,9.54
2024-03-06T09:44:35.425Z,9.64
2024-03-06T09:47:07.373Z,9.66
2024-03-06T09:49:35.999Z,9.69
2024-03-06T09:52:05.020Z,9.73
2024-03-06T09:54:31.830Z,9.79
2024-03-06T09:57:00.074Z,9.73
2024-03-06T09:59:28.314Z,9.80
2024-03-06T10:01:59.470Z,9.69
2024-03-06T10:04:27.745Z,9.93
2024-03-06T10:06:56.227Z,9.99
2024-03-06T10:09:22.989Z,10.02
2024-03-06T10:11:50.226Z,10.10
2024-03-06T10:14:17.135Z,10.12
2024-03-06T10:16:53.167Z,10.22
2024-03-06T10:19:20.486Z,10.32
2024-03-06T10:21:52.097Z,10.40
2024-03-06T10:24:29.168Z,10.41
2024-03-06T10:26:59.192Z,10.44
2024-03-06T10:29:27.628Z,10.48
2024-03-06T10:31:57.581Z,10.55
2024-03-06T10:34:28.798Z,10.52
2024-03-06T10:37:14.177Z,10.76
2024-03-06T10:39:45.302Z,10.87
2024-03-06T10:42:14.382Z,10.81
2024-03-06T10:44:52.985Z,10.90
2024-03-06T10:47:20.548Z,11.13
2024-03-06T10:49:48.528Z,11.19
2024-03-06T10:52:17.873Z,11.22
2024-03-06T10:54:47.300Z,11.25
2024-03-06T10:57:15.489Z,11.18
2024-03-06T10:59:44.198Z,11.38
2024-03-06T11:02:13.833Z,11.43
2024-03-06T11:04:41.794Z,11.51
2024-03-06T11:07:11.908Z,11.54
2024-03-06T11:09:40.915Z,11.58
2024-03-06T11:12:08.433Z,11.57
2024-03-06T11:14:39.715Z,11.60
2024-03-06T11:17:09.646Z,11.51
2024-03-06T11:20:01.843Z,11.71
2024-03-06T11:23:00.830Z,11.79
2024-03-06T11:25:47.165Z,11.91
2024-03-06T11:28:31.013Z,12.00
2024-03-06T11:31:06.570Z,12.14
2024-03-06T11:33:44.936Z,12.27
2024-03-06T11:36:21.762Z,12.43
2024-03-06T11:38:49.442Z,12.52
2024-03-06T11:41:16.191Z,12.66
2024-03-06T11:43:44.027Z,12.70
2024-03-06T11:46:11.566Z,12.69
2024-03-06T11:48:39.706Z,12.67
2024-03-06T11:51:06.698Z,12.62
2024-03-06T11:53:38.347Z,12.57
2024-03-06T11:56:11.117Z,12.58
2024-03-06T11:58:39.008Z,12.57
2024-03-06T12:01:05.913Z,12.54
2024-03-06T12:03:32.833Z,12.45
2024-03-06T12:06:00.068Z,12.35
2024-03-06T12:08:28.177Z,12.29
2024-03-06T12:10:56.730Z,12.18
2024-03-06T12:13:23.755Z,12.18
2024-03-06T12:15:50.486Z,11.96
2024-03-06T12:18:20.508Z,11.99
2024-03-06T12:20:47.399Z,11.94
2024-03-06T12:23:30.316Z,11.84
2024-03-06T12:26:11.298Z,11.80
2024-03-06T12:28:39.454Z,11.76
2024-03-06T12:31:08.851Z,11.71
2024-03-06T12:33:35.914Z,11.64
2024-03-06T12:36:07.875Z,11.60
2024-03-06T12:38:34.768Z,11.61
2024-03-06T12:41:01.545Z,11.63
2024-03-06T12:43:29.906Z,11.66
2024-03-06T12:45:58.701Z,11.69
2024-03-06T12:48:26.985Z,11.73
2024-03-06T12:50:55.361Z,11.78
2024-03-06T12:53:23.307Z,11.76
2024-03-06T12:55:50.079Z,11.81
2024-03-06T12:58:16.793Z,11.87
2024-03-06T13:00:43.489Z,11.90
2024-03-06T13:03:13.607Z,11.94
2024-03-06T13:05:40.310Z,12.02
2024-03-06T13:08:07.226Z,12.03
2024-03-06T13:10:33.901Z,12.06
2024-03-06T13:13:00.602Z,12.07
2024-03-06T13:15:27.193Z,12.16
2024-03-06T13:17:53.888Z,12.22
2024-03-06T13:20:20.805Z,12.28
2024-03-06T13:22:47.404Z,12.38
2024-03-06T13:25:14.180Z,12.46
2024-03-06T13:27:40.842Z,12.51
2024-03-06T13:30:09.288Z,12.59
2024-03-06T13:32:36.238Z,12.70
2024-03-06T13:35:03.492Z,12.74
2024-03-06T13:37:30.299Z,12.82
2024-03-06T13:40:01.577Z,12.89
2024-03-06T13:42:28.644Z,12.97
2024-03-06T13:44:55.268Z,13.09
2024-03-06T13:47:22.012Z,13.16
2024-03-06T13:49:48.685Z,13.25
2024-03-06T13:52:16.497Z,13.29
2024-03-06T13:54:43.772Z,13.31
2024-03-06T13:57:10.821Z,13.29
2024-03-06T13:59:38.970Z,13.26
2024-03-06T14:02:07.789Z,13.25
2024-03-06T14:04:34.902Z,13.20
2024-03-06T14:07:01.595Z,13.21
2024-03-06T14:09:28.312Z,13.21
2024-03-06T14:11:55.520Z,13.23
2024-03-06T14:14:22.316Z,13.19
2024-03-06T14:16:49.137Z,13.10
2024-03-06T14:19:15.919Z,13.09
2024-03-06T14:21:43.823Z,13.10
2024-03-06T14:24:10.484Z,13.07
2024-03-06T14:26:38.035Z,13.05
2024-03-06T14:29:08.436Z,13.00
2024-03-06T14:31:35.768Z,13.03
2024-03-06T14:34:06.172Z,13.09
2024-03-06T14:36:35.334Z,13.18
2024-03-06T14:39:02.101Z,13.26
2024-03-06T14:41:28.850Z,13.32
2024-03-06T14:43:55.640Z,13.34
2024-03-06T14:46:22.361Z,13.36
2024-03-06T14:48:48.981Z,13.36
2024-03-06T14:51:16.410Z,13.37
2024-03-06T14:53:43.155Z,13.35
2024-03-06T14:56:12.060Z,13.28
2024-03-06T14:58:39.128Z,13.23
2024-03-06T15:01:06.241Z,13.16
2024-03-06T15:03:33.075Z,13.10
2024-03-06T15:05:59.985Z,13.04
2024-03-06T15:08:26.701Z,13.03
2024-03-06T15:10:55.185Z,13.04
2024-03-06T15:13:23.909Z,13.01
2024-03-06T15:15:51.691Z,12.98
2024-03-06T15:18:18.848Z,12.95
2024-03-06T15:20:45.899Z,12.91
2024-03-06T15:23:12.716Z,12.88
2024-03-06T15:25:39.685Z,12.83
2024-03-06T15:28:06.453Z,12.75
2024-03-06T15:30:35.418Z,12.72
2024-03-06T15:33:04.204Z,12.70
2024-03-06T15:35:31.230Z,12.67
2024-03-06T15:37:57.999Z,12.59
2024-03-06T15:40:26.016Z,12.60
2024-03-06T15:42:56.338Z,12.58
2024-03-06T15:45:24.107Z,12.61
2024-03-06T15:47:50.918Z,12.59
2024-03-06T15:50:17.802Z,12.67
2024-03-06T15:52:44.472Z,12.70
2024-03-06T15:55:11.190Z,12.75
2024-03-06T15:57:38.307Z,12.82
2024-03-06T16:00:14.488Z,12.83
2024-03-06T16:02:42.452Z,12.83
2024-03-06T16:05:09.669Z,12.82
2024-03-06T16:07:42.086Z,12.81
2024-03-06T16:10:11.815Z,12.79
2024-03-06T16:12:38.448Z,12.73
2024-03-06T16:15:05.750Z,12.56
2024-03-06T16:17:32.617Z,12.60
2024-03-06T16:19:59.371Z,12.51
2024-03-06T16:22:26.295Z,12.44
2024-03-06T16:24:53.147Z,12.35
2024-03-06T16:27:20.132Z,12.30
2024-03-06T16:29:49.152Z,12.24
2024-03-06T16:32:15.906Z,12.20
2024-03-06T16:34:42.637Z,12.15
2024-03-06T16:37:09.518Z,12.10
2024-03-06T16:39:36.337Z,12.04
2024-03-06T16:42:04.015Z,12.02
2024-03-06T16:44:31.574Z,11.96
2024-03-06T16:46:58.203Z,11.89
2024-03-06T16:49:25.725Z,11.81
2024-03-06T16:51:53.202Z,11.79
2024-03-06T16:54:19.806Z,11.74
2024-03-06T16:56:46.515Z,11.70
2024-03-06T16:59:14.446Z,11.66
2024-03-06T17:01:42.422Z,11.62
2024-03-06T17:04:09.204Z,11.57
2024-03-06T17:06:36.251Z,11.54
2024-03-06T17:09:02.943Z,11.50
2024-03-06T17:11:29.871Z,11.50
2024-03-06T17:13:56.606Z,11.49
2024-03-06T17:16:23.239Z,11.33
2024-03-06T17:18:49.935Z,11.47
2024-03-06T17:21:16.665Z,11.46
2024-03-06T17:23:45.014Z,11.42
2024-03-06T17:26:13.277Z,11.43
2024-03-06T17:28:41.359Z,11.40
2024-03-06T17:31:08.664Z,11.37
2024-03-06T17:33:35.314Z,11.24
2024-03-06T17:36:02.010Z,11.31
2024-03-06T17:38:30.776Z,11.26
2024-03-06T17:40:57.452Z,11.20
2024-03-06T17:43:24.144Z,11.15
2024-03-06T17:45:50.826Z,11.03
2024-03-06T17:48:18.485Z,11.00
2024-03-06T17:50:47.564Z,10.94
2024-03-06T17:53:14.805Z,10.85
2024-03-06T17:55:42.078Z,10.83
2024-03-06T17:58:09.138Z,10.77
2024-03-06T18:00:37.796Z,10.67
2024-03-06T18:03:04.992Z,10.63
2024-03-06T18:05:31.820Z,10.54
2024-03-06T18:07:58.429Z,10.46
2024-03-06T18:10:25.129Z,10.38
2024-03-06T18:12:51.905Z,10.29
2024-03-06T18:15:19.239Z,10.24
2024-03-06T18:17:45.944Z,10.21
2024-03-06T18:20:13.025Z,10.14
2024-03-06T18:22:39.919Z,10.05
2024-03-06T18:25:07.667Z,10.03
2024-03-06T18:27:35.174Z,9.99
2024-03-06T18:30:03.914Z,9.92
2024-03-06T18:32:30.685Z,9.88
2024-03-06T18:34:59.022Z,9.83
2024-03-06T18:37:26.084Z,9.73
2024-03-06T18:39:54.321Z,9.65
2024-03-06T18:42:22.200Z,9.64
2024-03-06T18:44:49.807Z,9.60
2024-03-06T18:47:16.877Z,9.52
2024-03-06T18:49:43.628Z,9.44
2024-03-06T18:52:10.748Z,9.35
2024-03-06T18:54:43.051Z,9.22
2024-03-06T18:57:10.070Z,9.18
2024-03-06T18:59:38.784Z,9.12
2024-03-06T19:02:07.601Z,9.04
2024-03-06T19:04:36.809Z,8.96
2024-03-06T19:07:04.934Z,8.88
2024-03-06T19:09:31.539Z,8.77
2024-03-06T19:11:58.372Z,8.73
2024-03-06T19:14:25.079Z,8.65
2024-03-06T19:16:52.224Z,8.59
2024-03-06T19:19:19.157Z,8.54
2024-03-06T19:21:45.962Z,8.46
2024-03-06T19:24:12.638Z,8.39
2024-03-06T19:26:39.337Z,8.32
2024-03-06T19:29:06.136Z,8.27
2024-03-06T19:31:36.001Z,8.21
2024-03-06T19:34:03.681Z,8.11
2024-03-06T19:36:30.690Z,8.10
2024-03-06T19:38:57.309Z,8.03
2024-03-06T19:41:24.554Z,7.95
2024-03-06T19:43:51.297Z,7.94
2024-03-06T19:46:18.042Z,7.85
2024-03-06T19:48:44.758Z,7.83
2024-03-06T19:51:13.423Z,7.77
2024-03-06T19:53:41.618Z,7.71
2024-03-06T19:56:11.432Z,7.65
2024-03-06T19:58:38.366Z,7.59
2024-03-06T20:01:05.118Z,7.55
2024-03-06T20:03:31.765Z,7.48
2024-03-06T20:05:58.641Z,7.42
2024-03-06T20:08:26.268Z,7.40
2024-03-06T20:10:53.222Z,7.35
2024-03-06T20:13:19.984Z,7.28
2024-03-06T20:15:46.775Z,7.24
2024-03-06T20:18:13.646Z,7.21
2024-03-06T20:20:41.893Z,7.15
2024-03-06T20:23:11.082Z,7.10
2024-03-06T20:25:42.183Z,7.04
2024-03-06T20:28:10.237Z,6.99
2024-03-06T20:30:47.751Z,6.94
2024-03-06T20:33:14.833Z,6.91
2024-03-06T20:35:41.673Z,6.83
2024-03-06T20:38:13.681Z,6.83
2024-03-06T20:40:43.477Z,6.78
2024-03-06T20:43:10.313Z,6.75
2024-03-06T20:45:39.872Z,6.70
2024-03-06T20:48:08.390Z,6.69
2024-03-06T20:50:36.269Z,6.67
2024-03-06T20:53:03.706Z,6.65
2024-03-06T20:55:30.738Z,6.59
2024-03-06T20:57:57.889Z,6.58
2024-03-06T21:00:24.673Z,6.54
2024-03-06T21:02:51.414Z,6.53
2024-03-06T21:05:18.229Z,6.52
2024-03-06T21:07:44.940Z,6.49
2024-03-06T21:10:15.782Z,6.46
2024-03-06T21:12:48.927Z,6.44
2024-03-06T21:15:16.791Z,6.43
2024-03-06T21:17:44.535Z,6.40
2024-03-06T21:20:14.861Z,6.45
2024-03-06T21:22:43.070Z,6.51
2024-03-06T21:25:11.096Z,6.60
2024-03-06T21:27:38.827Z,6.64
2024-03-06T21:30:09.132Z,6.70
2024-03-06T21:32:39.179Z,6.73
2024-03-06T21:35:06.190Z,6.76
2024-03-06T21:37:33.597Z,6.78
2024-03-06T21:40:00.656Z,6.81
2024-03-06T21:42:33.903Z,6.81
2024-03-06T21:45:00.758Z,6.76
2024-03-06T21:47:27.881Z,6.81
2024-03-06T21:49:54.676Z,6.79
2024-03-06T21:52:21.509Z,6.75
2024-03-06T21:54:48.162Z,6.76
2024-03-06T21:57:16.458Z,6.77
2024-03-06T21:59:43.290Z,6.76
2024-03-06T22:02:11.752Z,6.75
2024-03-06T22:04:38.753Z,6.75
2024-03-06T22:07:05.541Z,6.75
2024-03-06T22:09:33.143Z,6.75
2024-03-06T22:12:01.984Z,6.72
2024-03-06T22:14:29.099Z,6.76
2024-03-06T22:16:55.780Z,6.78
2024-03-06T22:19:25.478Z,6.74
2024-03-06T22:21:52.356Z,6.76
2024-03-06T22:24:19.013Z,6.81
2024-03-06T22:26:45.833Z,6.83
2024-03-06T22:29:12.531Z,6.82
2024-03-06T22:31:39.426Z,6.79
2024-03-06T22:34:07.815Z,6.84
2024-03-06T22:36:34.542Z,6.81
2024-03-06T22:39:01.734Z,6.91
2024-03-06T22:41:28.709Z,6.90
2024-03-06T22:43:55.964Z,6.91
2024-03-06T22:46:23.800Z,6.87
2024-03-06T22:48:51.152Z,6.87
2024-03-06T22:51:18.816Z,6.90
2024-03-06T22:53:46.181Z,6.89
2024-03-06T22:56:14.182Z,6.88
2024-03-06T22:58:41.258Z,6.85
2024-03-06T23:01:08.032Z,6.83
2024-03-06T23:03:36.157Z,6.79
2024-03-06T23:06:03.634Z,6.74
2024-03-06T23:08:30.356Z,6.68
2024-03-06T23:10:59.975Z,6.58
2024-03-06T23:13:26.773Z,6.56
2024-03-06T23:15:53.812Z,6.47
2024-03-06T23:18:21.334Z,6.44
2024-03-06T23:20:49.903Z,6.33
2024-03-06T23:23:16.900Z,6.35
2024-03-06T23:25:43.719Z,6.32
2024-03-06T23:28:11.887Z,6.26
2024-03-06T23:30:38.998Z,6.30
2024-03-06T23:33:07.084Z,6.30
2024-03-06T23:35:33.948Z,6.30
2024-03-06T23:38:00.645Z,6.31
2024-03-06T23:40:30.528Z,6.30
2024-03-06T23:42:58.146Z,6.28
2024-03-06T23:45:25.121Z,6.31
2024-03-06T23:47:52.579Z,6.32
2024-03-06T23:50:21.088Z,6.33
2024-03-06T23:52:49.130Z,6.36
2024-03-06T23:55:16.947Z,6.37
2024-03-06T23:57:43.734Z,6.41
